createdAt,value
2023-03-23T00:03:00.963Z,12.2
2023-03-23T00:05:01.018Z,12.4
2023-03-23T00:08:01.029Z,12.1
2023-03-23T00:10:00.937Z,12.3
2023-03-23T00:11:00.953Z,12.2
2023-03-23T00:13:00.966Z,12.2
2023-03-23T00:15:01.000Z,12.3
2023-03-23T00:17:00.954Z,12.2
2023-03-23T00:20:00.929Z,12.2
2023-03-23T00:21:00.935Z,12.3
2023-03-23T00:22:00.954Z,12.2
2023-03-23T00:24:00.955Z,12.1
2023-03-23T00:25:00.991Z,12.3
2023-03-23T00:26:00.992Z,12.2
2023-03-23T00:29:00.985Z,12.3
2023-03-23T00:30:01.019Z,12.2
2023-03-23T00:32:00.944Z,12.3
2023-03-23T00:33:00.981Z,12.2
2023-03-23T00:35:00.973Z,12.1
2023-03-23T00:36:01.022Z,12.3
2023-03-23T00:37:00.995Z,12.2
2023-03-23T00:39:01.015Z,12.1
2023-03-23T00:44:00.988Z,12.1
2023-03-23T00:45:01.039Z,12.2
2023-03-23T00:51:00.953Z,12.2
2023-03-23T00:52:01.008Z,12.3
2023-03-23T00:55:00.997Z,12.1
2023-03-23T00:57:01.045Z,12.2
2023-03-23T01:00:05.445Z,12.2
2023-03-23T01:01:01.009Z,12.1
2023-03-23T01:03:01.025Z,12.2
2023-03-23T01:05:01.007Z,12.2
2023-03-23T01:10:00.962Z,12.1
2023-03-23T01:12:00.963Z,12.2
2023-03-23T01:13:00.994Z,12.3
2023-03-23T01:16:00.954Z,12.1
2023-03-23T01:17:00.987Z,12.2
2023-03-23T01:18:00.994Z,12.3
2023-03-23T01:19:01.015Z,12.2
2023-03-23T01:21:00.974Z,12.2
2023-03-23T01:24:00.967Z,12.3
2023-03-23T01:25:01.035Z,12.1
2023-03-23T01:32:00.950Z,12.3
2023-03-23T01:33:00.970Z,12.2
2023-03-23T01:34:00.956Z,12.3
2023-03-23T01:35:00.997Z,12.4
2023-03-23T01:38:00.971Z,12.2
2023-03-23T01:41:00.950Z,12.2
2023-03-23T01:44:00.974Z,12.3
2023-03-23T01:45:01.030Z,12.2
2023-03-23T01:48:01.087Z,12.1
2023-03-23T01:51:00.995Z,12.2
2023-03-23T01:53:01.111Z,12.3
2023-03-23T01:55:01.019Z,12.3
2023-03-23T01:56:01.105Z,12.2
2023-03-23T01:58:01.070Z,12.3
2023-03-23T02:01:01.040Z,12.4
2023-03-23T02:02:01.121Z,12.2
2023-03-23T02:05:00.947Z,12.4
2023-03-23T02:08:00.954Z,12.3
2023-03-23T02:09:00.974Z,12.5
2023-03-23T02:11:00.996Z,12.4
2023-03-23T02:13:00.954Z,12.4
2023-03-23T02:16:00.928Z,12.5
2023-03-23T02:17:01.012Z,12.4
2023-03-23T02:20:01.044Z,12.5
2023-03-23T02:22:00.935Z,12.4
2023-03-23T02:23:00.973Z,12.5
2023-03-23T02:26:01.056Z,12.5
2023-03-23T02:27:00.954Z,12.4
2023-03-23T02:29:01.016Z,12.6
2023-03-23T02:31:01.014Z,12.4
2023-03-23T02:35:00.966Z,12.6
2023-03-23T02:37:00.950Z,12.6
2023-03-23T02:38:01.020Z,12.4
2023-03-23T02:41:00.984Z,12.6
2023-03-23T02:42:01.029Z,12.5
2023-03-23T02:45:00.997Z,12.6
2023-03-23T02:47:00.981Z,12.4
2023-03-23T02:50:00.969Z,12.5
2023-03-23T02:52:00.923Z,12.5
2023-03-23T02:53:00.953Z,12.6
2023-03-23T02:56:00.921Z,12.5
2023-03-23T02:57:00.985Z,12.2
2023-03-23T03:01:00.973Z,12.5
2023-03-23T03:04:00.968Z,12.2
2023-03-23T03:07:00.950Z,12.2
2023-03-23T03:09:01.042Z,12.4
2023-03-23T03:11:00.947Z,12.2
2023-03-23T03:13:00.966Z,12.3
2023-03-23T03:18:00.913Z,12.3
2023-03-23T03:19:00.935Z,12.2
2023-03-23T03:22:00.916Z,12.3
2023-03-23T03:25:00.974Z,12.1
2023-03-23T03:30:01.126Z,12.3
2023-03-23T03:32:00.976Z,12.3
2023-03-23T03:34:00.935Z,12.2
2023-03-23T03:35:00.974Z,12.1
2023-03-23T03:37:00.938Z,12.1
2023-03-23T03:40:00.946Z,12.1
2023-03-23T03:44:00.935Z,12
2023-03-23T03:47:00.977Z,12.1
2023-03-23T03:49:00.946Z,12
2023-03-23T03:52:00.986Z,12.1
2023-03-23T03:54:00.969Z,11.9
2023-03-23T03:56:00.940Z,11.8
2023-03-23T03:57:00.944Z,11.9
2023-03-23T03:59:01.004Z,11.9
2023-03-23T04:01:00.950Z,12
2023-03-23T04:03:00.937Z,11.9
2023-03-23T04:05:00.989Z,11.9
2023-03-23T04:10:00.992Z,12
2023-03-23T04:12:00.940Z,11.9
2023-03-23T04:13:00.929Z,12
2023-03-23T04:14:00.993Z,11.9
2023-03-23T04:16:07.049Z,12
2023-03-23T04:17:01.031Z,11.8
2023-03-23T04:19:01.053Z,12
2023-03-23T04:22:00.943Z,12
2023-03-23T04:23:00.993Z,12.1
2023-03-23T04:25:00.962Z,11.9
2023-03-23T04:26:00.984Z,12
2023-03-23T04:27:02.789Z,11.9
2023-03-23T04:29:00.991Z,11.9
2023-03-23T04:30:01.390Z,12.1
2023-03-23T04:32:00.966Z,12
2023-03-23T04:33:01.056Z,12.2
2023-03-23T04:38:00.978Z,12.2
2023-03-23T04:39:01.004Z,12
2023-03-23T04:41:00.944Z,12.2
2023-03-23T04:42:00.955Z,12
2023-03-23T04:43:00.978Z,11.9
2023-03-23T04:45:00.962Z,12
2023-03-23T04:46:00.993Z,12.1
2023-03-23T04:47:01.004Z,12
2023-03-23T04:52:00.983Z,12.2
2023-03-23T04:53:01.030Z,12.1
2023-03-23T04:54:00.997Z,12.2
2023-03-23T04:55:01.019Z,12.1
2023-03-23T04:57:01.081Z,12.2
2023-03-23T04:59:01.063Z,12.2
2023-03-23T05:01:00.956Z,12.2
2023-03-23T05:07:00.970Z,12.3
2023-03-23T05:10:01.091Z,12.3
2023-03-23T05:12:00.929Z,12.4
2023-03-23T05:13:00.976Z,12.3
2023-03-23T05:14:01.037Z,12.4
2023-03-23T05:22:00.953Z,12.4
2023-03-23T05:24:00.958Z,12.3
2023-03-23T05:25:01.075Z,12.4
2023-03-23T05:28:00.936Z,12.3
2023-03-23T05:29:02.405Z,12.4
2023-03-23T05:31:00.981Z,12.5
2023-03-23T05:32:01.018Z,12.4
2023-03-23T05:35:00.975Z,12.5
2023-03-23T05:37:01.078Z,12.6
2023-03-23T05:39:01.073Z,12.5
2023-03-23T05:41:01.050Z,12.4
2023-03-23T05:43:01.024Z,12.5
2023-03-23T05:45:01.081Z,12.5
2023-03-23T05:47:01.002Z,12.6
2023-03-23T05:49:01.061Z,12.6
2023-03-23T05:51:00.954Z,12.6
2023-03-23T05:52:00.999Z,12.5
2023-03-23T05:54:00.983Z,12.6
2023-03-23T05:56:00.916Z,12.7
2023-03-23T05:57:00.996Z,12.6
2023-03-23T06:02:01.059Z,12.7
2023-03-23T06:05:01.107Z,12.6
2023-03-23T06:07:01.139Z,12.8
2023-03-23T06:11:01.149Z,12.7
2023-03-23T06:17:01.211Z,12.6
2023-03-23T06:23:01.053Z,12.7
2023-03-23T06:24:01.205Z,12.6
2023-03-23T06:28:01.316Z,12.8
2023-03-23T06:31:01.159Z,12.9
2023-03-23T06:35:01.086Z,12.8
2023-03-23T06:36:01.154Z,12.9
2023-03-23T06:38:01.118Z,13
2023-03-23T06:39:01.109Z,12.9
2023-03-23T06:43:01.084Z,13
2023-03-23T06:46:00.951Z,13.1
2023-03-23T06:49:01.001Z,13
2023-03-23T06:51:00.980Z,13.1
2023-03-23T06:53:01.365Z,13.2
2023-03-23T06:55:01.046Z,13.3
2023-03-23T06:57:01.081Z,13.4
2023-03-23T06:58:01.109Z,13.6
2023-03-23T07:00:00.928Z,13.7
2023-03-23T07:01:00.950Z,13.8
2023-03-23T07:04:00.953Z,14
2023-03-23T07:05:00.983Z,13.8
2023-03-23T07:07:01.006Z,14
2023-03-23T07:10:00.949Z,14
2023-03-23T07:11:00.948Z,14.1
2023-03-23T07:13:00.967Z,13.9
2023-03-23T07:15:01.020Z,14
2023-03-23T07:18:00.985Z,13.8
2023-03-23T07:20:00.931Z,13.8
2023-03-23T07:24:00.959Z,13.7
2023-03-23T07:27:00.964Z,13.8
2023-03-23T07:29:00.963Z,13.7
2023-03-23T07:31:00.960Z,13.8
2023-03-23T07:36:00.953Z,13.7
2023-03-23T07:37:00.998Z,13.6
2023-03-23T07:44:00.953Z,13.5
2023-03-23T07:45:00.985Z,13.6
2023-03-23T07:47:01.005Z,13.6
2023-03-23T07:50:00.927Z,13.6
2023-03-23T07:51:00.938Z,13.5
2023-03-23T07:52:00.986Z,13.8
2023-03-23T07:54:00.993Z,13.6
2023-03-23T07:56:00.967Z,13.8
2023-03-23T07:59:00.937Z,14
2023-03-23T08:00:00.982Z,13.8
2023-03-23T08:03:00.965Z,14
2023-03-23T08:13:00.977Z,14.1
2023-03-23T08:14:00.949Z,13.8
2023-03-23T08:15:00.949Z,13.9
2023-03-23T08:18:00.974Z,13.8
2023-03-23T08:19:08.621Z,14
2023-03-23T08:20:00.973Z,13.7
2023-03-23T08:21:01.173Z,13.8
2023-03-23T08:23:00.956Z,13.8
2023-03-23T08:25:00.958Z,13.6
2023-03-23T08:29:00.988Z,13.5
2023-03-23T08:31:00.949Z,13.4
2023-03-23T08:33:00.942Z,13.4
2023-03-23T08:35:00.968Z,13.4
2023-03-23T08:36:01.004Z,13.2
2023-03-23T08:40:00.996Z,13.3
2023-03-23T08:41:00.954Z,13.2
2023-03-23T08:42:00.988Z,13.1
2023-03-23T08:43:01.390Z,13.2
2023-03-23T08:45:00.966Z,13.2
2023-03-23T08:46:00.971Z,13.3
2023-03-23T08:47:00.977Z,13.1
2023-03-23T08:48:01.021Z,13.3
2023-03-23T08:51:00.943Z,13.1
2023-03-23T08:53:00.969Z,13.1
2023-03-23T08:54:00.978Z,13.2
2023-03-23T08:56:00.959Z,13.2
2023-03-23T08:57:01.009Z,13.1
2023-03-23T08:58:00.974Z,13.2
2023-03-23T09:01:01.031Z,13.1
2023-03-23T09:03:00.997Z,13.1
2023-03-23T09:05:00.988Z,13.1
2023-03-23T09:09:00.964Z,13.3
2023-03-23T09:11:00.934Z,13.3
2023-03-23T09:16:01.326Z,13.5
2023-03-23T09:19:00.963Z,13.3
2023-03-23T09:20:00.989Z,13.5
2023-03-23T09:22:00.999Z,13.4
2023-03-23T09:23:01.019Z,13.5
2023-03-23T09:25:01.032Z,13.7
2023-03-23T09:28:00.994Z,13.8
2023-03-23T09:30:00.982Z,13.9
2023-03-23T09:32:00.951Z,13.7
2023-03-23T09:34:01.020Z,14
2023-03-23T09:38:00.965Z,14.1
2023-03-23T09:39:00.957Z,14
2023-03-23T09:40:06.629Z,14.1
2023-03-23T09:42:00.934Z,14.1
2023-03-23T09:45:00.941Z,14
2023-03-23T09:46:00.949Z,14.1
2023-03-23T09:50:00.973Z,14
2023-03-23T09:52:01.009Z,14.2
2023-03-23T09:54:00.941Z,14.2
2023-03-23T09:56:00.918Z,14.3
2023-03-23T09:57:01.014Z,14.2
2023-03-23T09:58:01.025Z,14.3
2023-03-23T10:00:00.954Z,14.4
2023-03-23T10:02:00.973Z,14.3
2023-03-23T10:04:00.980Z,14.3
2023-03-23T10:06:00.918Z,14.4
2023-03-23T10:07:00.966Z,14.2
2023-03-23T10:09:00.933Z,14.3
2023-03-23T10:12:00.927Z,14.4
2023-03-23T10:13:00.941Z,14.2
2023-03-23T10:15:00.974Z,14.4
2023-03-23T10:18:00.911Z,14.3
2023-03-23T10:19:00.938Z,14.4
2023-03-23T10:22:00.936Z,14.3
2023-03-23T10:24:00.922Z,14.4
2023-03-23T10:25:00.997Z,14.3
2023-03-23T10:27:01.012Z,14.3
2023-03-23T10:29:00.997Z,14.3
2023-03-23T10:32:00.927Z,14.4
2023-03-23T10:36:01.040Z,14.5
2023-03-23T10:38:00.984Z,14.4
2023-03-23T10:40:01.009Z,14.5
2023-03-23T10:43:00.935Z,14.2
2023-03-23T10:44:00.970Z,14.4
2023-03-23T10:45:00.984Z,14.3
2023-03-23T10:49:00.962Z,14.4
2023-03-23T10:51:00.951Z,14.3
2023-03-23T10:56:00.956Z,14.2
2023-03-23T10:58:00.935Z,14
2023-03-23T10:59:00.978Z,14.1
2023-03-23T11:00:01.089Z,14
2023-03-23T11:02:00.989Z,14.1
2023-03-23T11:03:01.025Z,14
2023-03-23T11:05:03.066Z,13.9
2023-03-23T11:06:00.965Z,13.7
2023-03-23T11:07:00.987Z,13.9
2023-03-23T11:09:01.008Z,13.8
2023-03-23T11:11:00.951Z,13.7
2023-03-23T11:12:02.190Z,13.8
2023-03-23T11:15:01.019Z,13.5
2023-03-23T11:17:06.916Z,13.5
2023-03-23T11:21:00.962Z,13.6
2023-03-23T11:23:00.999Z,13.5
2023-03-23T11:25:01.041Z,13.7
2023-03-23T11:26:01.004Z,13.6
2023-03-23T11:27:01.010Z,13.8
2023-03-23T11:29:00.994Z,13.9
2023-03-23T11:31:00.980Z,14
2023-03-23T11:33:00.962Z,13.9
2023-03-23T11:34:06.198Z,14
2023-03-23T11:38:00.996Z,14
2023-03-23T11:39:00.989Z,14.1
2023-03-23T11:43:00.976Z,14.2
2023-03-23T11:46:00.939Z,14.4
2023-03-23T11:48:00.965Z,14.3
2023-03-23T11:49:01.001Z,14.2
2023-03-23T11:51:01.000Z,14.4
2023-03-23T11:53:00.955Z,14.4
2023-03-23T11:54:00.945Z,14.5
2023-03-23T11:55:00.985Z,14.6
2023-03-23T11:57:01.040Z,14.6
2023-03-23T11:59:01.014Z,14.5
2023-03-23T12:00:01.027Z,14.7
2023-03-23T12:02:08.587Z,14.7
2023-03-23T12:03:00.968Z,14.8
2023-03-23T12:04:01.026Z,14.6
2023-03-23T12:07:01.046Z,14.6
2023-03-23T12:09:01.040Z,14.5
2023-03-23T12:11:01.840Z,14.6
2023-03-23T12:13:01.029Z,14.5
2023-03-23T12:15:01.007Z,14.6
2023-03-23T12:17:00.999Z,14.5
2023-03-23T12:19:01.001Z,14.7
2023-03-23T12:21:01.046Z,14.5
2023-03-23T12:24:02.338Z,14.7
2023-03-23T12:25:00.960Z,14.6
2023-03-23T12:30:01.004Z,14.5
2023-03-23T12:32:00.979Z,14.6
2023-03-23T12:34:00.965Z,14.7
2023-03-23T12:35:00.989Z,14.6
2023-03-23T12:39:01.006Z,14.5
2023-03-23T12:40:00.992Z,14.6
2023-03-23T12:42:00.915Z,14.4
2023-03-23T12:43:00.936Z,14.6
2023-03-23T12:44:01.030Z,14.4
2023-03-23T12:46:00.916Z,14.4
2023-03-23T12:49:00.947Z,14.3
2023-03-23T12:51:00.960Z,14.3
2023-03-23T12:53:01.026Z,14.4
2023-03-23T12:55:00.955Z,14.3
2023-03-23T12:57:00.940Z,14.3
2023-03-23T13:00:01.040Z,14.4
2023-03-23T13:02:00.914Z,14.3
2023-03-23T13:03:01.006Z,14.4
2023-03-23T13:05:00.940Z,14.4
2023-03-23T13:07:00.926Z,14.5
2023-03-23T13:09:00.963Z,14.6
2023-03-23T13:12:00.912Z,14.5
2023-03-23T13:14:00.918Z,14.4
2023-03-23T13:15:00.957Z,14.5
2023-03-23T13:16:00.992Z,14.6
2023-03-23T13:18:00.918Z,14.4
2023-03-23T13:19:00.950Z,14.6
2023-03-23T13:21:00.957Z,14.6
2023-03-23T13:22:01.020Z,14.5
2023-03-23T13:27:00.972Z,14.6
2023-03-23T13:28:01.041Z,14.5
2023-03-23T13:30:00.951Z,14.6
2023-03-23T13:31:00.949Z,14.5
2023-03-23T13:33:00.938Z,14.4
2023-03-23T13:35:00.980Z,14.4
2023-03-23T13:39:00.957Z,14.2
2023-03-23T13:41:00.958Z,14.2
2023-03-23T13:43:00.938Z,14.2
2023-03-23T13:47:00.938Z,14.4
2023-03-23T13:50:01.026Z,14.3
2023-03-23T13:52:00.920Z,14.2
2023-03-23T13:53:01.007Z,14.5
2023-03-23T13:55:00.938Z,14.6
2023-03-23T13:58:00.920Z,14.9
2023-03-23T14:00:00.936Z,15
2023-03-23T14:01:00.938Z,15.1
2023-03-23T14:04:01.357Z,15.1
2023-03-23T14:06:00.928Z,15.3
2023-03-23T14:07:00.989Z,15.1
2023-03-23T14:10:00.932Z,15.1
2023-03-23T14:13:00.951Z,15
2023-03-23T14:15:00.972Z,15
2023-03-23T14:17:01.028Z,14.9
2023-03-23T14:20:00.945Z,14.8
2023-03-23T14:22:00.946Z,14.9
2023-03-23T14:25:00.970Z,14.8
2023-03-23T14:28:00.948Z,14.9
2023-03-23T14:29:00.961Z,15
2023-03-23T14:30:00.980Z,14.9
2023-03-23T14:32:00.924Z,14.8
2023-03-23T14:35:00.940Z,14.9
2023-03-23T14:37:01.082Z,14.9
2023-03-23T14:39:01.015Z,14.7
2023-03-23T14:42:00.933Z,14.9
2023-03-23T14:43:00.963Z,14.8
2023-03-23T14:44:00.949Z,14.7
2023-03-23T14:46:00.981Z,14.6
2023-03-23T14:50:00.945Z,14.4
2023-03-23T14:56:00.924Z,14.3
2023-03-23T14:57:00.950Z,14.2
2023-03-23T14:58:00.973Z,14.4
2023-03-23T15:01:00.960Z,14.3
2023-03-23T15:03:01.014Z,14.4
2023-03-23T15:06:00.916Z,14.4
2023-03-23T15:08:00.961Z,14.3
2023-03-23T15:09:01.047Z,14.2
2023-03-23T15:11:00.983Z,14.4
2023-03-23T15:13:00.966Z,14.3
2023-03-23T15:14:00.982Z,14.2
2023-03-23T15:15:00.981Z,14.1
2023-03-23T15:17:00.964Z,14.1
2023-03-23T15:20:00.932Z,13.9
2023-03-23T15:24:00.991Z,13.8
2023-03-23T15:26:00.927Z,13.8
2023-03-23T15:27:00.974Z,13.6
2023-03-23T15:29:00.983Z,13.5
2023-03-23T15:33:00.974Z,13.5
2023-03-23T15:35:01.689Z,13.7
2023-03-23T15:36:00.980Z,13.5
2023-03-23T15:38:00.983Z,13.4
2023-03-23T15:41:00.980Z,13.5
2023-03-23T15:47:01.040Z,13.2
2023-03-23T15:49:01.066Z,13.1
2023-03-23T15:53:00.953Z,13.2
2023-03-23T15:55:00.967Z,13.2
2023-03-23T15:57:00.974Z,13
2023-03-23T15:59:00.982Z,12.9
2023-03-23T16:02:00.983Z,12.8
2023-03-23T16:05:01.024Z,12.9
2023-03-23T16:07:00.995Z,12.9
2023-03-23T16:09:00.988Z,12.9
2023-03-23T16:11:00.962Z,12.7
2023-03-23T16:12:00.962Z,12.8
2023-03-23T16:13:00.931Z,12.7
2023-03-23T16:14:00.942Z,12.9
2023-03-23T16:15:01.100Z,12.7
2023-03-23T16:17:00.990Z,12.7
2023-03-23T16:20:00.961Z,12.8
2023-03-23T16:22:00.941Z,12.7
2023-03-23T16:23:00.946Z,12.6
2023-03-23T16:25:01.009Z,12.7
2023-03-23T16:27:00.992Z,12.5
2023-03-23T16:30:04.140Z,12.7
2023-03-23T16:32:00.918Z,12.7
2023-03-23T16:33:01.093Z,12.6
2023-03-23T16:35:01.005Z,12.7
2023-03-23T16:37:00.927Z,12.6
2023-03-23T16:38:06.912Z,12.7
2023-03-23T16:40:00.948Z,12.6
2023-03-23T16:42:00.998Z,12.7
2023-03-23T16:44:00.936Z,12.7
2023-03-23T16:45:00.965Z,12.8
2023-03-23T16:49:00.948Z,12.7
2023-03-23T16:53:00.943Z,12.5
2023-03-23T16:55:00.981Z,12.6
2023-03-23T16:56:00.979Z,12.5
2023-03-23T16:58:13.690Z,12.6
2023-03-23T17:00:01.103Z,12.5
2023-03-23T17:02:00.993Z,12.5
2023-03-23T17:03:01.047Z,12.7
2023-03-23T17:06:00.953Z,12.5
2023-03-23T17:07:00.930Z,12.6
2023-03-23T17:08:00.992Z,12.7
2023-03-23T17:11:00.997Z,12.7
2023-03-23T17:22:00.935Z,12.7
2023-03-23T17:23:00.942Z,12.6
2023-03-23T17:27:01.005Z,12.7
2023-03-23T17:30:01.009Z,12.7
2023-03-23T17:31:01.047Z,12.6
2023-03-23T17:34:00.973Z,12.5
2023-03-23T17:35:00.988Z,12.6
2023-03-23T17:37:00.994Z,12.5
2023-03-23T17:39:01.007Z,12.6
2023-03-23T17:42:00.999Z,12.5
2023-03-23T17:43:01.002Z,12.6
2023-03-23T17:45:01.058Z,12.6
2023-03-23T17:48:01.015Z,12.6
2023-03-23T17:49:00.985Z,12.5
2023-03-23T17:51:00.943Z,12.6
2023-03-23T17:53:00.949Z,12.6
2023-03-23T17:54:00.949Z,12.4
2023-03-23T17:55:00.960Z,12.5
2023-03-23T17:57:01.009Z,12.4
2023-03-23T17:59:01.324Z,12.6
2023-03-23T18:01:01.010Z,12.6
2023-03-23T18:03:00.946Z,12.3
2023-03-23T18:04:00.956Z,12.5
2023-03-23T18:06:00.993Z,12.5
2023-03-23T18:07:00.954Z,12.4
2023-03-23T18:09:00.987Z,12.5
2023-03-23T18:12:01.037Z,12.4
2023-03-23T18:14:00.969Z,12.7
2023-03-23T18:15:01.024Z,12.6
2023-03-23T18:17:00.973Z,12.6
2023-03-23T18:20:00.974Z,12.6
2023-03-23T18:23:01.018Z,12.7
2023-03-23T18:24:01.008Z,12.6
2023-03-23T18:26:01.020Z,12.6
2023-03-23T18:28:04.433Z,12.6
2023-03-23T18:33:01.072Z,12.5
2023-03-23T18:36:01.042Z,12.5
2023-03-23T18:38:01.016Z,12.5
2023-03-23T18:39:01.018Z,12.6
2023-03-23T18:41:01.054Z,12.6
2023-03-23T18:44:01.008Z,12.4
2023-03-23T18:46:01.050Z,12.5
2023-03-23T18:47:01.013Z,12.6
2023-03-23T18:48:01.031Z,12.3
2023-03-23T18:55:00.958Z,12.5
2023-03-23T18:56:00.969Z,12.4
2023-03-23T19:03:01.119Z,12.2
2023-03-23T19:07:01.014Z,12.3
2023-03-23T19:10:00.952Z,12.2
2023-03-23T19:11:00.972Z,12.3
2023-03-23T19:14:03.216Z,12.2
2023-03-23T19:15:01.045Z,12.3
2023-03-23T19:20:02.546Z,12.3
2023-03-23T19:22:00.972Z,12.2
2023-03-23T19:23:01.013Z,12.1
2023-03-23T19:24:00.968Z,12.4
2023-03-23T19:25:01.019Z,12.2
2023-03-23T19:30:00.973Z,12.3
2023-03-23T19:31:01.020Z,12.4
2023-03-23T19:33:01.043Z,12.2
2023-03-23T19:37:05.658Z,12.4
2023-03-23T19:39:02.698Z,12.3
2023-03-23T19:42:01.050Z,12.3
2023-03-23T19:43:00.972Z,12.1
2023-03-23T19:44:00.977Z,12.2
2023-03-23T19:47:01.125Z,12.3
2023-03-23T19:51:00.969Z,12.1
2023-03-23T19:53:01.474Z,12.2
2023-03-23T19:56:02.322Z,12.2
2023-03-23T19:57:01.010Z,12.1
2023-03-23T19:59:01.046Z,12.1
2023-03-23T20:04:01.815Z,11.9
2023-03-23T20:05:01.274Z,12.1
2023-03-23T20:07:00.996Z,12
2023-03-23T20:10:00.970Z,12
2023-03-23T20:12:01.284Z,11.8
2023-03-23T20:13:01.983Z,12.1
2023-03-23T20:16:01.044Z,12
2023-03-23T20:17:01.021Z,11.9
2023-03-23T20:19:00.994Z,12
2023-03-23T20:20:01.595Z,11.9
2023-03-23T20:25:00.939Z,11.8
2023-03-23T20:26:00.939Z,11.9
2023-03-23T20:28:00.935Z,12
2023-03-23T20:29:00.930Z,11.9
2023-03-23T20:33:01.015Z,12
2023-03-23T20:36:00.932Z,11.8
2023-03-23T20:38:00.946Z,11.7
2023-03-23T20:39:00.963Z,11.8
2023-03-23T20:41:00.942Z,11.7
2023-03-23T20:46:00.932Z,11.6
2023-03-23T20:47:00.948Z,11.7
2023-03-23T20:49:00.990Z,11.7
2023-03-23T20:50:00.980Z,11.6
2023-03-23T20:52:00.930Z,11.8
2023-03-23T20:53:00.939Z,11.6
2023-03-23T20:55:01.005Z,11.5
2023-03-23T20:56:00.945Z,11.7
2023-03-23T20:57:01.005Z,11.6
2023-03-23T20:58:00.991Z,11.5
2023-03-23T20:59:00.946Z,11.6
2023-03-23T21:01:01.019Z,11.5
2023-03-23T21:03:00.976Z,11.6
2023-03-23T21:05:00.969Z,11.5
2023-03-23T21:07:00.986Z,11.6
2023-03-23T21:10:00.945Z,11.5
2023-03-23T21:11:00.944Z,11.7
2023-03-23T21:13:00.973Z,11.5
2023-03-23T21:15:01.039Z,11.6
2023-03-23T21:17:00.940Z,11.5
2023-03-23T21:20:00.940Z,11.6
2023-03-23T21:21:00.987Z,11.5
2023-03-23T21:23:00.987Z,11.6
2023-03-23T21:25:00.985Z,11.4
2023-03-23T21:27:00.958Z,11.5
2023-03-23T21:29:01.109Z,11.5
2023-03-23T21:30:01.023Z,11.3
2023-03-23T21:31:01.122Z,11.4
2023-03-23T21:37:00.946Z,11.7
2023-03-23T21:39:01.004Z,11.5
2023-03-23T21:43:01.043Z,11.5
2023-03-23T21:45:00.970Z,11.6
2023-03-23T21:48:00.923Z,11.7
2023-03-23T21:49:00.966Z,11.6
2023-03-23T21:51:00.968Z,11.5
2023-03-23T21:54:00.939Z,11.7
2023-03-23T21:55:00.999Z,11.5
2023-03-23T21:57:01.016Z,11.6
2023-03-23T21:59:00.990Z,11.6
2023-03-23T22:01:00.979Z,11.6
2023-03-23T22:02:00.967Z,11.5
2023-03-23T22:04:00.939Z,11.7
2023-03-23T22:05:01.037Z,11.8
2023-03-23T22:07:01.007Z,11.6
2023-03-23T22:09:01.045Z,11.6
2023-03-23T22:13:01.000Z,11.8
2023-03-23T22:15:01.033Z,11.8
2023-03-23T22:17:00.945Z,11.9
2023-03-23T22:19:00.951Z,11.9
2023-03-23T22:20:00.963Z,11.8
2023-03-23T22:21:00.990Z,11.9
2023-03-23T22:24:00.965Z,11.8
2023-03-23T22:26:00.934Z,11.9
2023-03-23T22:28:00.971Z,11.8
2023-03-23T22:33:01.045Z,11.7
2023-03-23T22:35:00.992Z,11.9
2023-03-23T22:37:00.990Z,11.7
2023-03-23T22:41:00.982Z,11.8
2023-03-23T22:44:00.958Z,11.7
2023-03-23T22:52:00.935Z,11.8
2023-03-23T22:53:01.012Z,11.7
2023-03-23T22:55:00.978Z,11.7
2023-03-23T22:56:00.960Z,11.8
2023-03-23T22:59:00.977Z,11.7
2023-03-23T23:02:00.950Z,11.8
2023-03-23T23:03:01.072Z,11.7
2023-03-23T23:05:00.974Z,11.9
2023-03-23T23:06:01.007Z,11.7
2023-03-23T23:07:12.348Z,11.8
2023-03-23T23:08:01.065Z,11.9
2023-03-23T23:09:01.055Z,11.8
2023-03-23T23:11:01.003Z,11.9
2023-03-23T23:14:01.006Z,11.9
2023-03-23T23:16:01.052Z,11.8
2023-03-23T23:18:01.217Z,11.8
2023-03-23T23:20:01.021Z,12
2023-03-23T23:22:09.391Z,11.8
2023-03-23T23:23:01.016Z,11.9
2023-03-23T23:27:04.706Z,11.8
2023-03-23T23:28:00.956Z,11.9
2023-03-23T23:30:01.068Z,11.8
2023-03-23T23:32:00.959Z,11.7
2023-03-23T23:33:01.054Z,11.8
2023-03-23T23:34:01.105Z,11.9
2023-03-23T23:38:01.053Z,12
2023-03-23T23:41:01.039Z,11.9
2023-03-23T23:46:01.181Z,12
2023-03-23T23:51:01.201Z,11.9
2023-03-23T23:52:01.264Z,12
2023-03-23T23:57:01.235Z,12
2023-03-23T23:58:01.199Z,12.1
2023-03-23T23:59:01.244Z,12.2
